sensor_id;sensor_type;location;lat;lon;timestamp;pressure;altitude;pressure_sealevel;temperature;humidity
59194;BME280;44967;48.598;15.650;2023-02-19T00:02:21;98355.16;;;10.28;73.33
59194;BME280;44967;48.598;15.650;2023-02-19T00:04:48;98362.22;;;10.28;73.04
59194;BME280;44967;48.598;15.650;2023-02-19T00:07:13;98355.06;;;10.31;72.75
59194;BME280;44967;48.598;15.650;2023-02-19T00:09:39;98350.50;;;10.38;72.34
59194;BME280;44967;48.598;15.650;2023-02-19T00:12:04;98353.38;;;10.30;72.46
59194;BME280;44967;48.598;15.650;2023-02-19T00:14:30;98344.78;;;10.22;72.96
59194;BME280;44967;48.598;15.650;2023-02-19T00:16:56;98334.34;;;10.18;72.96
59194;BME280;44967;48.598;15.650;2023-02-19T00:19:21;98336.94;;;10.19;73.04
59194;BME280;44967;48.598;15.650;2023-02-19T00:21:50;98326.25;;;10.24;72.74
59194;BME280;44967;48.598;15.650;2023-02-19T00:24:16;98337.00;;;10.18;72.73
59194;BME280;44967;48.598;15.650;2023-02-19T00:26:42;98342.47;;;10.09;72.64
59194;BME280;44967;48.598;15.650;2023-02-19T00:29:13;98351.31;;;10.08;73.23
59194;BME280;44967;48.598;15.650;2023-02-19T00:31:39;98338.25;;;10.03;72.92
59194;BME280;44967;48.598;15.650;2023-02-19T00:34:05;98339.91;;;10.07;72.05
59194;BME280;44967;48.598;15.650;2023-02-19T00:36:32;98339.84;;;10.09;72.24
59194;BME280;44967;48.598;15.650;2023-02-19T00:39:03;98350.63;;;10.01;72.67
59194;BME280;44967;48.598;15.650;2023-02-19T00:41:29;98355.94;;;10.00;72.80
59194;BME280;44967;48.598;15.650;2023-02-19T00:43:55;98353.13;;;10.06;72.59
59194;BME280;44967;48.598;15.650;2023-02-19T00:46:29;98352.16;;;10.08;72.35
59194;BME280;44967;48.598;15.650;2023-02-19T00:48:56;98352.03;;;10.14;72.15
59194;BME280;44967;48.598;15.650;2023-02-19T00:51:30;98343.44;;;10.06;72.19
59194;BME280;44967;48.598;15.650;2023-02-19T00:53:57;98344.09;;;10.14;71.82
59194;BME280;44967;48.598;15.650;2023-02-19T00:56:23;98353.94;;;10.08;72.01
59194;BME280;44967;48.598;15.650;2023-02-19T00:58:49;98343.56;;;10.02;71.81
59194;BME280;44967;48.598;15.650;2023-02-19T01:01:16;98338.81;;;10.14;71.37
59194;BME280;44967;48.598;15.650;2023-02-19T01:03:42;98349.88;;;10.28;69.91
59194;BME280;44967;48.598;15.650;2023-02-19T01:06:09;98343.66;;;10.31;69.82
59194;BME280;44967;48.598;15.650;2023-02-19T01:08:36;98332.56;;;10.18;69.81
59194;BME280;44967;48.598;15.650;2023-02-19T01:11:03;98334.38;;;10.16;70.24
59194;BME280;44967;48.598;15.650;2023-02-19T01:13:29;98337.16;;;10.10;70.30
59194;BME280;44967;48.598;15.650;2023-02-19T01:16:25;98331.75;;;10.16;69.49
59194;BME280;44967;48.598;15.650;2023-02-19T01:18:53;98329.34;;;10.07;69.64
59194;BME280;44967;48.598;15.650;2023-02-19T01:21:21;98326.06;;;10.30;68.45
59194;BME280;44967;48.598;15.650;2023-02-19T01:23:48;98333.97;;;10.61;66.94
59194;BME280;44967;48.598;15.650;2023-02-19T01:26:17;98326.00;;;10.62;66.35
59194;BME280;44967;48.598;15.650;2023-02-19T01:28:43;98327.03;;;10.57;66.45
59194;BME280;44967;48.598;15.650;2023-02-19T01:31:12;98328.25;;;10.47;66.63
59194;BME280;44967;48.598;15.650;2023-02-19T01:33:38;98322.25;;;10.40;67.20
59194;BME280;44967;48.598;15.650;2023-02-19T01:36:05;98327.22;;;10.51;66.64
59194;BME280;44967;48.598;15.650;2023-02-19T01:38:30;98318.59;;;10.44;67.44
59194;BME280;44967;48.598;15.650;2023-02-19T01:41:02;98316.59;;;10.52;66.47
59194;BME280;44967;48.598;15.650;2023-02-19T01:43:28;98311.00;;;10.33;67.50
59194;BME280;44967;48.598;15.650;2023-02-19T01:45:54;98312.75;;;10.34;67.01
59194;BME280;44967;48.598;15.650;2023-02-19T01:48:33;98304.53;;;10.44;66.75
59194;BME280;44967;48.598;15.650;2023-02-19T01:51:11;98308.94;;;10.43;66.27
59194;BME280;44967;48.598;15.650;2023-02-19T01:53:44;98284.03;;;10.52;65.97
59194;BME280;44967;48.598;15.650;2023-02-19T01:56:12;98300.88;;;10.48;66.15
59194;BME280;44967;48.598;15.650;2023-02-19T01:58:39;98300.81;;;10.51;65.65
59194;BME280;44967;48.598;15.650;2023-02-19T02:01:06;98292.97;;;10.48;65.58
59194;BME280;44967;48.598;15.650;2023-02-19T02:03:34;98295.59;;;10.48;65.69
59194;BME280;44967;48.598;15.650;2023-02-19T02:06:06;98302.63;;;10.49;65.61
59194;BME280;44967;48.598;15.650;2023-02-19T02:08:33;98301.47;;;10.57;65.11
59194;BME280;44967;48.598;15.650;2023-02-19T02:11:18;98302.44;;;10.55;65.20
59194;BME280;44967;48.598;15.650;2023-02-19T02:13:44;98312.63;;;10.67;65.16
59194;BME280;44967;48.598;15.650;2023-02-19T02:16:29;98303.06;;;10.63;64.74
59194;BME280;44967;48.598;15.650;2023-02-19T02:19:22;98303.28;;;10.55;64.78
59194;BME280;44967;48.598;15.650;2023-02-19T02:22:04;98298.97;;;10.53;64.59
59194;BME280;44967;48.598;15.650;2023-02-19T02:30:08;98292.47;;;10.35;65.09
59194;BME280;44967;48.598;15.650;2023-02-19T02:32:49;98279.22;;;10.36;64.93
59194;BME280;44967;48.598;15.650;2023-02-19T02:35:25;98275.69;;;10.36;65.38
59194;BME280;44967;48.598;15.650;2023-02-19T02:37:55;98281.09;;;10.31;65.04
59194;BME280;44967;48.598;15.650;2023-02-19T02:40:24;98275.66;;;10.37;65.18
59194;BME280;44967;48.598;15.650;2023-02-19T02:42:50;98273.81;;;10.39;64.99
59194;BME280;44967;48.598;15.650;2023-02-19T02:51:00;98282.50;;;10.45;65.64
59194;BME280;44967;48.598;15.650;2023-02-19T02:53:32;98282.34;;;10.49;65.74
59194;BME280;44967;48.598;15.650;2023-02-19T02:56:20;98271.78;;;10.49;65.87
59194;BME280;44967;48.598;15.650;2023-02-19T02:58:48;98267.50;;;10.45;66.20
59194;BME280;44967;48.598;15.650;2023-02-19T03:01:40;98265.09;;;10.37;66.75
59194;BME280;44967;48.598;15.650;2023-02-19T03:07:22;98261.78;;;10.31;67.37
59194;BME280;44967;48.598;15.650;2023-02-19T03:09:49;98256.16;;;10.42;66.55
59194;BME280;44967;48.598;15.650;2023-02-19T03:12:16;98247.34;;;10.43;66.96
59194;BME280;44967;48.598;15.650;2023-02-19T03:15:08;98252.63;;;10.43;66.83
59194;BME280;44967;48.598;15.650;2023-02-19T03:18:00;98253.00;;;10.30;67.48
59194;BME280;44967;48.598;15.650;2023-02-19T03:20:50;98254.06;;;10.23;67.36
59194;BME280;44967;48.598;15.650;2023-02-19T03:23:20;98252.16;;;10.28;67.67
59194;BME280;44967;48.598;15.650;2023-02-19T03:26:08;98246.84;;;10.30;67.39
59194;BME280;44967;48.598;15.650;2023-02-19T03:28:37;98253.00;;;10.30;67.25
59194;BME280;44967;48.598;15.650;2023-02-19T03:31:26;98251.88;;;10.37;67.72
59194;BME280;44967;48.598;15.650;2023-02-19T03:33:57;98249.97;;;10.43;67.03
59194;BME280;44967;48.598;15.650;2023-02-19T03:36:27;98247.75;;;10.29;68.03
59194;BME280;44967;48.598;15.650;2023-02-19T03:39:03;98239.38;;;10.13;68.42
59194;BME280;44967;48.598;15.650;2023-02-19T03:46:45;98228.03;;;10.11;68.23
59194;BME280;44967;48.598;15.650;2023-02-19T03:49:39;98224.56;;;10.08;68.89
59194;BME280;44967;48.598;15.650;2023-02-19T03:52:17;98212.34;;;10.05;68.63
59194;BME280;44967;48.598;15.650;2023-02-19T03:57:55;98220.47;;;9.99;68.96
59194;BME280;44967;48.598;15.650;2023-02-19T04:00:27;98224.16;;;9.92;69.35
59194;BME280;44967;48.598;15.650;2023-02-19T04:02:59;98223.00;;;10.02;68.70
59194;BME280;44967;48.598;15.650;2023-02-19T04:05:32;98216.25;;;10.23;67.91
59194;BME280;44967;48.598;15.650;2023-02-19T04:08:06;98213.69;;;10.20;66.86
59194;BME280;44967;48.598;15.650;2023-02-19T04:10:34;98216.31;;;10.20;66.72
59194;BME280;44967;48.598;15.650;2023-02-19T04:13:13;98204.31;;;10.08;67.07
59194;BME280;44967;48.598;15.650;2023-02-19T04:15:41;98206.97;;;10.08;67.27
59194;BME280;44967;48.598;15.650;2023-02-19T04:18:16;98210.56;;;10.06;67.38
59194;BME280;44967;48.598;15.650;2023-02-19T04:20:44;98206.06;;;10.09;66.99
59194;BME280;44967;48.598;15.650;2023-02-19T04:23:12;98184.84;;;10.12;66.96
59194;BME280;44967;48.598;15.650;2023-02-19T04:25:42;98187.09;;;10.26;66.57
59194;BME280;44967;48.598;15.650;2023-02-19T04:28:12;98209.16;;;10.23;66.00
59194;BME280;44967;48.598;15.650;2023-02-19T04:30:38;98207.63;;;10.16;67.05
59194;BME280;44967;48.598;15.650;2023-02-19T04:33:04;98207.09;;;10.04;68.55
59194;BME280;44967;48.598;15.650;2023-02-19T04:35:30;98209.81;;;10.02;68.83
59194;BME280;44967;48.598;15.650;2023-02-19T04:37:55;98198.41;;;10.00;69.39
59194;BME280;44967;48.598;15.650;2023-02-19T04:40:21;98208.31;;;9.92;70.67
59194;BME280;44967;48.598;15.650;2023-02-19T04:42:46;98203.75;;;9.99;70.62
59194;BME280;44967;48.598;15.650;2023-02-19T04:45:12;98192.59;;;9.89;71.63
59194;BME280;44967;48.598;15.650;2023-02-19T04:47:37;98193.81;;;9.77;71.96
59194;BME280;44967;48.598;15.650;2023-02-19T04:50:03;98182.72;;;9.65;73.93
59194;BME280;44967;48.598;15.650;2023-02-19T04:52:29;98183.06;;;9.53;75.77
59194;BME280;44967;48.598;15.650;2023-02-19T04:54:54;98186.69;;;9.50;75.03
59194;BME280;44967;48.598;15.650;2023-02-19T04:57:20;98186.00;;;9.43;75.95
59194;BME280;44967;48.598;15.650;2023-02-19T04:59:46;98162.41;;;9.37;76.94
59194;BME280;44967;48.598;15.650;2023-02-19T05:02:11;98167.78;;;9.34;77.18
59194;BME280;44967;48.598;15.650;2023-02-19T05:04:37;98159.88;;;9.34;77.53
59194;BME280;44967;48.598;15.650;2023-02-19T05:07:02;98157.47;;;9.25;78.67
59194;BME280;44967;48.598;15.650;2023-02-19T05:09:28;98154.44;;;9.08;79.66
59194;BME280;44967;48.598;15.650;2023-02-19T05:11:53;98147.53;;;9.04;79.74
59194;BME280;44967;48.598;15.650;2023-02-19T05:14:19;98163.38;;;9.03;80.35
59194;BME280;44967;48.598;15.650;2023-02-19T05:16:44;98162.59;;;8.99;80.40
59194;BME280;44967;48.598;15.650;2023-02-19T05:19:11;98158.31;;;8.95;81.18
59194;BME280;44967;48.598;15.650;2023-02-19T05:21:36;98153.94;;;8.94;81.26
59194;BME280;44967;48.598;15.650;2023-02-19T05:24:04;98150.50;;;8.92;81.52
59194;BME280;44967;48.598;15.650;2023-02-19T05:26:29;98136.53;;;8.88;81.80
59194;BME280;44967;48.598;15.650;2023-02-19T05:28:55;98143.81;;;8.77;82.22
59194;BME280;44967;48.598;15.650;2023-02-19T05:31:21;98130.50;;;8.83;82.55
59194;BME280;44967;48.598;15.650;2023-02-19T05:33:47;98125.25;;;8.82;82.86
59194;BME280;44967;48.598;15.650;2023-02-19T05:36:16;98117.34;;;8.82;82.47
59194;BME280;44967;48.598;15.650;2023-02-19T05:38:42;98122.59;;;8.83;83.43
59194;BME280;44967;48.598;15.650;2023-02-19T05:41:13;98121.03;;;8.76;83.31
59194;BME280;44967;48.598;15.650;2023-02-19T05:43:40;98118.44;;;8.75;83.49
59194;BME280;44967;48.598;15.650;2023-02-19T05:46:07;98114.91;;;8.76;83.19
59194;BME280;44967;48.598;15.650;2023-02-19T05:48:33;98118.34;;;8.78;83.05
59194;BME280;44967;48.598;15.650;2023-02-19T05:51:09;98112.19;;;8.79;83.67
59194;BME280;44967;48.598;15.650;2023-02-19T05:53:35;98111.38;;;8.77;83.20
59194;BME280;44967;48.598;15.650;2023-02-19T05:56:01;98110.63;;;8.72;83.57
59194;BME280;44967;48.598;15.650;2023-02-19T05:58:27;98111.47;;;8.72;83.58
59194;BME280;44967;48.598;15.650;2023-02-19T06:00:53;98102.00;;;8.65;84.23
59194;BME280;44967;48.598;15.650;2023-02-19T06:03:19;98116.03;;;8.66;84.11
59194;BME280;44967;48.598;15.650;2023-02-19T06:05:45;98115.09;;;8.68;84.16
59194;BME280;44967;48.598;15.650;2023-02-19T06:08:14;98113.38;;;8.66;84.15
59194;BME280;44967;48.598;15.650;2023-02-19T06:10:41;98114.25;;;8.66;84.19
59194;BME280;44967;48.598;15.650;2023-02-19T06:13:08;98118.75;;;8.63;84.09
59194;BME280;44967;48.598;15.650;2023-02-19T06:15:35;98094.22;;;8.61;83.60
59194;BME280;44967;48.598;15.650;2023-02-19T06:18:00;98116.34;;;8.53;84.08
59194;BME280;44967;48.598;15.650;2023-02-19T06:20:27;98125.16;;;8.52;85.05
59194;BME280;44967;48.598;15.650;2023-02-19T06:22:53;98125.09;;;8.54;84.37
59194;BME280;44967;48.598;15.650;2023-02-19T06:25:19;98118.13;;;8.53;84.31
59194;BME280;44967;48.598;15.650;2023-02-19T06:27:44;98122.38;;;8.59;84.71
59194;BME280;44967;48.598;15.650;2023-02-19T06:30:11;98123.25;;;8.58;84.04
59194;BME280;44967;48.598;15.650;2023-02-19T06:32:37;98120.78;;;8.51;83.75
59194;BME280;44967;48.598;15.650;2023-02-19T06:35:03;98115.63;;;8.47;84.74
59194;BME280;44967;48.598;15.650;2023-02-19T06:37:29;98119.16;;;8.46;84.04
59194;BME280;44967;48.598;15.650;2023-02-19T06:39:55;98129.75;;;8.44;84.19
59194;BME280;44967;48.598;15.650;2023-02-19T06:42:20;98116.78;;;8.37;83.81
59194;BME280;44967;48.598;15.650;2023-02-19T06:44:46;98125.69;;;8.31;84.53
59194;BME280;44967;48.598;15.650;2023-02-19T06:47:11;98132.59;;;8.35;84.22
59194;BME280;44967;48.598;15.650;2023-02-19T06:49:40;98127.31;;;8.37;83.97
59194;BME280;44967;48.598;15.650;2023-02-19T06:52:05;98120.31;;;8.36;84.62
59194;BME280;44967;48.598;15.650;2023-02-19T06:54:32;98107.91;;;8.41;84.67
59194;BME280;44967;48.598;15.650;2023-02-19T06:57:00;98108.88;;;8.37;84.40
59194;BME280;44967;48.598;15.650;2023-02-19T06:59:26;98099.41;;;8.28;85.00
59194;BME280;44967;48.598;15.650;2023-02-19T07:01:51;98093.81;;;8.42;84.42
59194;BME280;44967;48.598;15.650;2023-02-19T07:04:17;98105.81;;;8.53;83.62
59194;BME280;44967;48.598;15.650;2023-02-19T07:06:43;98099.34;;;8.65;82.12
59194;BME280;44967;48.598;15.650;2023-02-19T07:09:09;98098.97;;;8.80;82.23
59194;BME280;44967;48.598;15.650;2023-02-19T07:11:37;98098.25;;;9.06;80.25
59194;BME280;44967;48.598;15.650;2023-02-19T07:14:06;98095.38;;;9.15;80.46
59194;BME280;44967;48.598;15.650;2023-02-19T07:16:33;98107.28;;;9.28;80.21
59194;BME280;44967;48.598;15.650;2023-02-19T07:18:59;98102.19;;;9.22;80.45
59194;BME280;44967;48.598;15.650;2023-02-19T07:21:26;98114.50;;;9.53;78.04
59194;BME280;44967;48.598;15.650;2023-02-19T07:23:52;98105.34;;;9.64;77.83
59194;BME280;44967;48.598;15.650;2023-02-19T07:26:19;98107.31;;;9.87;77.00
59194;BME280;44967;48.598;15.650;2023-02-19T07:28:46;98097.41;;;9.95;76.44
59194;BME280;44967;48.598;15.650;2023-02-19T07:31:13;98106.78;;;10.04;76.53
59194;BME280;44967;48.598;15.650;2023-02-19T07:33:41;98108.81;;;10.23;75.13
59194;BME280;44967;48.598;15.650;2023-02-19T07:36:08;98098.19;;;10.26;74.85
59194;BME280;44967;48.598;15.650;2023-02-19T07:38:34;98116.56;;;10.29;74.42
59194;BME280;44967;48.598;15.650;2023-02-19T07:41:01;98122.56;;;10.34;74.17
59194;BME280;44967;48.598;15.650;2023-02-19T07:43:31;98117.19;;;10.37;74.41
59194;BME280;44967;48.598;15.650;2023-02-19T07:45:57;98125.91;;;10.39;73.46
59194;BME280;44967;48.598;15.650;2023-02-19T07:48:23;98123.81;;;10.51;72.35
59194;BME280;44967;48.598;15.650;2023-02-19T07:50:57;98126.34;;;10.54;72.59
59194;BME280;44967;48.598;15.650;2023-02-19T07:53:23;98123.28;;;10.66;72.32
59194;BME280;44967;48.598;15.650;2023-02-19T07:55:50;98123.97;;;10.71;71.30
59194;BME280;44967;48.598;15.650;2023-02-19T07:58:16;98124.69;;;10.76;70.85
59194;BME280;44967;48.598;15.650;2023-02-19T08:00:41;98109.69;;;10.76;70.30
59194;BME280;44967;48.598;15.650;2023-02-19T08:03:07;98123.81;;;10.75;71.64
59194;BME280;44967;48.598;15.650;2023-02-19T08:05:36;98129.66;;;10.85;69.67
59194;BME280;44967;48.598;15.650;2023-02-19T08:08:10;98130.44;;;10.88;70.92
59194;BME280;44967;48.598;15.650;2023-02-19T08:10:36;98135.59;;;10.92;70.18
59194;BME280;44967;48.598;15.650;2023-02-19T08:13:20;98131.91;;;10.97;68.31
59194;BME280;44967;48.598;15.650;2023-02-19T08:15:54;98145.00;;;11.00;67.64
59194;BME280;44967;48.598;15.650;2023-02-19T08:18:23;98156.19;;;11.08;68.92
59194;BME280;44967;48.598;15.650;2023-02-19T08:20:48;98157.81;;;11.12;68.98
59194;BME280;44967;48.598;15.650;2023-02-19T08:23:15;98158.06;;;11.05;68.85
59194;BME280;44967;48.598;15.650;2023-02-19T08:25:41;98139.22;;;10.89;68.88
59194;BME280;44967;48.598;15.650;2023-02-19T08:28:08;98137.78;;;10.79;69.30
59194;BME280;44967;48.598;15.650;2023-02-19T08:30:34;98156.38;;;10.77;68.22
59194;BME280;44967;48.598;15.650;2023-02-19T08:33:01;98169.69;;;10.74;69.40
59194;BME280;44967;48.598;15.650;2023-02-19T08:35:27;98154.66;;;10.75;67.90
59194;BME280;44967;48.598;15.650;2023-02-19T08:37:57;98158.16;;;10.77;68.73
59194;BME280;44967;48.598;15.650;2023-02-19T08:40:23;98146.75;;;11.01;67.03
59194;BME280;44967;48.598;15.650;2023-02-19T08:42:50;98143.72;;;11.12;66.76
59194;BME280;44967;48.598;15.650;2023-02-19T08:45:16;98148.56;;;11.24;65.67
59194;BME280;44967;48.598;15.650;2023-02-19T08:47:42;98142.81;;;11.38;65.43
59194;BME280;44967;48.598;15.650;2023-02-19T08:50:09;98164.28;;;11.53;66.63
59194;BME280;44967;48.598;15.650;2023-02-19T08:52:35;98163.06;;;11.62;64.40
59194;BME280;44967;48.598;15.650;2023-02-19T08:55:01;98165.66;;;11.63;63.41
59194;BME280;44967;48.598;15.650;2023-02-19T08:57:27;98164.09;;;11.58;63.96
59194;BME280;44967;48.598;15.650;2023-02-19T08:59:54;98156.69;;;11.67;63.48
59194;BME280;44967;48.598;15.650;2023-02-19T09:02:24;98161.09;;;11.67;65.29
59194;BME280;44967;48.598;15.650;2023-02-19T09:04:50;98161.84;;;11.72;65.34
59194;BME280;44967;48.598;15.650;2023-02-19T09:07:16;98164.31;;;11.76;64.08
59194;BME280;44967;48.598;15.650;2023-02-19T09:09:42;98172.25;;;12.00;63.72
59194;BME280;44967;48.598;15.650;2023-02-19T09:12:09;98165.00;;;12.05;62.07
59194;BME280;44967;48.598;15.650;2023-02-19T09:14:36;98158.09;;;12.01;62.51
59194;BME280;44967;48.598;15.650;2023-02-19T09:17:03;98140.88;;;12.12;61.53
59194;BME280;44967;48.598;15.650;2023-02-19T09:19:29;98147.56;;;12.21;60.06
59194;BME280;44967;48.598;15.650;2023-02-19T09:21:54;98152.25;;;12.14;60.21
59194;BME280;44967;48.598;15.650;2023-02-19T09:24:20;98150.00;;;12.27;59.24
59194;BME280;44967;48.598;15.650;2023-02-19T09:26:50;98155.78;;;12.37;58.74
59194;BME280;44967;48.598;15.650;2023-02-19T09:29:16;98170.03;;;12.56;58.05
59194;BME280;44967;48.598;15.650;2023-02-19T09:31:42;98169.00;;;12.60;56.75
59194;BME280;44967;48.598;15.650;2023-02-19T09:34:08;98172.13;;;12.69;57.41
59194;BME280;44967;48.598;15.650;2023-02-19T09:36:33;98156.28;;;12.68;54.81
59194;BME280;44967;48.598;15.650;2023-02-19T09:38:59;98167.22;;;12.81;56.24
59194;BME280;44967;48.598;15.650;2023-02-19T09:41:47;98169.47;;;12.91;55.35
59194;BME280;44967;48.598;15.650;2023-02-19T09:44:24;98149.41;;;12.84;54.88
59194;BME280;44967;48.598;15.650;2023-02-19T09:46:51;98157.25;;;12.87;55.37
59194;BME280;44967;48.598;15.650;2023-02-19T09:49:21;98152.06;;;12.84;55.82
59194;BME280;44967;48.598;15.650;2023-02-19T09:51:56;98160.97;;;12.83;55.28
59194;BME280;44967;48.598;15.650;2023-02-19T09:54:26;98155.97;;;12.75;54.33
59194;BME280;44967;48.598;15.650;2023-02-19T09:56:54;98145.88;;;12.63;53.63
59194;BME280;44967;48.598;15.650;2023-02-19T09:59:24;98136.69;;;12.50;53.05
59194;BME280;44967;48.598;15.650;2023-02-19T10:01:56;98144.19;;;12.61;52.81
59194;BME280;44967;48.598;15.650;2023-02-19T10:04:26;98158.41;;;12.60;53.71
59194;BME280;44967;48.598;15.650;2023-02-19T10:06:52;98150.44;;;12.60;52.48
59194;BME280;44967;48.598;15.650;2023-02-19T10:09:23;98167.59;;;12.93;52.24
59194;BME280;44967;48.598;15.650;2023-02-19T10:11:53;98173.44;;;13.01;52.96
59194;BME280;44967;48.598;15.650;2023-02-19T10:14:50;98158.81;;;13.13;51.07
59194;BME280;44967;48.598;15.650;2023-02-19T10:17:30;98158.31;;;13.25;52.09
59194;BME280;44967;48.598;15.650;2023-02-19T10:19:56;98161.69;;;13.29;51.26
59194;BME280;44967;48.598;15.650;2023-02-19T10:22:22;98159.84;;;13.31;50.32
59194;BME280;44967;48.598;15.650;2023-02-19T10:24:51;98180.19;;;13.30;50.80
59194;BME280;44967;48.598;15.650;2023-02-19T10:27:18;98177.41;;;13.33;50.79
59194;BME280;44967;48.598;15.650;2023-02-19T10:29:46;98165.34;;;13.26;50.76
59194;BME280;44967;48.598;15.650;2023-02-19T10:34:38;98160.22;;;13.42;50.07
59194;BME280;44967;48.598;15.650;2023-02-19T10:37:11;98181.50;;;13.40;49.95
59194;BME280;44967;48.598;15.650;2023-02-19T10:39:41;98179.72;;;13.61;49.83
59194;BME280;44967;48.598;15.650;2023-02-19T10:42:21;98186.69;;;13.43;48.53
59194;BME280;44967;48.598;15.650;2023-02-19T10:45:11;98181.06;;;13.31;50.19
59194;BME280;44967;48.598;15.650;2023-02-19T10:47:45;98182.41;;;12.99;50.44
59194;BME280;44967;48.598;15.650;2023-02-19T10:50:30;98172.66;;;12.99;51.03
59194;BME280;44967;48.598;15.650;2023-02-19T10:52:59;98185.47;;;12.88;50.63
59194;BME280;44967;48.598;15.650;2023-02-19T10:55:33;98158.03;;;12.89;51.07
59194;BME280;44967;48.598;15.650;2023-02-19T10:58:20;98166.06;;;13.08;51.09
59194;BME280;44967;48.598;15.650;2023-02-19T11:00:50;98172.03;;;13.14;50.10
59194;BME280;44967;48.598;15.650;2023-02-19T11:03:33;98174.38;;;13.22;51.02
59194;BME280;44967;48.598;15.650;2023-02-19T11:06:02;98173.75;;;13.36;50.79
59194;BME280;44967;48.598;15.650;2023-02-19T11:08:29;98185.16;;;13.58;50.01
59194;BME280;44967;48.598;15.650;2023-02-19T11:10:58;98201.25;;;13.94;51.26
59194;BME280;44967;48.598;15.650;2023-02-19T11:13:31;98213.13;;;13.66;51.04
59194;BME280;44967;48.598;15.650;2023-02-19T11:16:02;98186.28;;;13.32;50.70
59194;BME280;44967;48.598;15.650;2023-02-19T11:18:31;98180.28;;;13.07;51.83
59194;BME280;44967;48.598;15.650;2023-02-19T11:21:02;98189.13;;;13.07;51.92
59194;BME280;44967;48.598;15.650;2023-02-19T11:23:43;98188.34;;;13.04;52.40
59194;BME280;44967;48.598;15.650;2023-02-19T11:26:18;98198.56;;;13.14;51.59
59194;BME280;44967;48.598;15.650;2023-02-19T11:28:45;98213.50;;;13.37;53.04
59194;BME280;44967;48.598;15.650;2023-02-19T11:31:23;98201.63;;;13.46;53.94
59194;BME280;44967;48.598;15.650;2023-02-19T11:34:22;98192.59;;;13.70;51.89
59194;BME280;44967;48.598;15.650;2023-02-19T11:37:16;98201.75;;;13.63;50.72
59194;BME280;44967;48.598;15.650;2023-02-19T11:39:44;98202.84;;;13.39;52.14
59194;BME280;44967;48.598;15.650;2023-02-19T11:42:25;98191.88;;;13.26;53.07
59194;BME280;44967;48.598;15.650;2023-02-19T11:54:45;98201.69;;;13.02;54.39
59194;BME280;44967;48.598;15.650;2023-02-19T12:00:00;98205.09;;;13.06;53.58
59194;BME280;44967;48.598;15.650;2023-02-19T12:05:18;98222.25;;;13.19;54.38
59194;BME280;44967;48.598;15.650;2023-02-19T12:22:40;98228.53;;;12.73;56.94
59194;BME280;44967;48.598;15.650;2023-02-19T12:39:20;98218.66;;;12.98;52.72
59194;BME280;44967;48.598;15.650;2023-02-19T12:44:42;98220.00;;;13.08;52.20
59194;BME280;44967;48.598;15.650;2023-02-19T12:47:18;98222.00;;;13.03;51.70
59194;BME280;44967;48.598;15.650;2023-02-19T12:50:01;98218.41;;;13.04;52.33
59194;BME280;44967;48.598;15.650;2023-02-19T12:52:35;98225.31;;;13.08;52.38
59194;BME280;44967;48.598;15.650;2023-02-19T12:55:31;98217.66;;;13.01;52.13
59194;BME280;44967;48.598;15.650;2023-02-19T12:58:01;98225.47;;;12.62;57.44
59194;BME280;44967;48.598;15.650;2023-02-19T13:00:37;98251.31;;;12.34;59.12
59194;BME280;44967;48.598;15.650;2023-02-19T13:03:13;98250.84;;;11.99;61.77
59194;BME280;44967;48.598;15.650;2023-02-19T13:05:51;98260.03;;;11.89;62.76
59194;BME280;44967;48.598;15.650;2023-02-19T13:08:31;98256.28;;;11.71;63.25
59194;BME280;44967;48.598;15.650;2023-02-19T13:11:05;98255.91;;;11.56;64.80
59194;BME280;44967;48.598;15.650;2023-02-19T13:16:08;98270.81;;;11.33;64.69
59194;BME280;44967;48.598;15.650;2023-02-19T13:18:47;98275.69;;;11.19;66.76
59194;BME280;44967;48.598;15.650;2023-02-19T13:21:16;98273.28;;;11.12;66.02
59194;BME280;44967;48.598;15.650;2023-02-19T13:24:15;98266.09;;;11.17;68.69
59194;BME280;44967;48.598;15.650;2023-02-19T13:27:03;98259.91;;;11.43;65.34
59194;BME280;44967;48.598;15.650;2023-02-19T13:32:34;98278.03;;;11.28;64.10
59194;BME280;44967;48.598;15.650;2023-02-19T13:37:53;98312.53;;;11.25;63.72
59194;BME280;44967;48.598;15.650;2023-02-19T13:43:06;98324.31;;;11.15;64.36
59194;BME280;44967;48.598;15.650;2023-02-19T13:45:41;98306.97;;;11.33;64.08
59194;BME280;44967;48.598;15.650;2023-02-19T13:59:37;98306.03;;;11.34;61.66
59194;BME280;44967;48.598;15.650;2023-02-19T14:04:48;98322.00;;;11.32;62.16
59194;BME280;44967;48.598;15.650;2023-02-19T14:07:20;98307.56;;;11.15;62.65
59194;BME280;44967;48.598;15.650;2023-02-19T14:09:47;98325.22;;;11.14;62.81
59194;BME280;44967;48.598;15.650;2023-02-19T14:14:53;98337.13;;;11.01;63.09
59194;BME280;44967;48.598;15.650;2023-02-19T14:33:43;98368.63;;;10.50;66.51
59194;BME280;44967;48.598;15.650;2023-02-19T14:36:31;98378.81;;;10.33;66.56
59194;BME280;44967;48.598;15.650;2023-02-19T14:39:04;98399.47;;;10.19;67.95
59194;BME280;44967;48.598;15.650;2023-02-19T14:41:36;98391.09;;;10.02;69.51
59194;BME280;44967;48.598;15.650;2023-02-19T14:44:06;98401.94;;;9.91;69.81
59194;BME280;44967;48.598;15.650;2023-02-19T14:46:42;98408.53;;;9.73;70.57
59194;BME280;44967;48.598;15.650;2023-02-19T14:49:17;98412.72;;;9.48;72.49
59194;BME280;44967;48.598;15.650;2023-02-19T14:51:49;98414.50;;;9.46;72.46
59194;BME280;44967;48.598;15.650;2023-02-19T14:54:28;98426.06;;;9.40;73.82
59194;BME280;44967;48.598;15.650;2023-02-19T14:57:00;98426.59;;;9.18;73.77
59194;BME280;44967;48.598;15.650;2023-02-19T14:59:29;98436.09;;;8.85;76.99
59194;BME280;44967;48.598;15.650;2023-02-19T15:02:00;98423.59;;;8.94;76.67
59194;BME280;44967;48.598;15.650;2023-02-19T15:04:29;98425.44;;;8.92;77.66
59194;BME280;44967;48.598;15.650;2023-02-19T15:06:58;98435.28;;;8.83;77.83